createdAt,value
2018-09-04T00:00:19.145Z,99.90
2018-09-04T00:02:48.050Z,99.90
2018-09-04T00:05:16.962Z,99.90
2018-09-04T00:07:45.929Z,99.90
2018-09-04T00:10:15.606Z,99.90
2018-09-04T00:12:44.582Z,99.90
2018-09-04T00:15:13.502Z,99.90
2018-09-04T00:17:42.397Z,99.90
2018-09-04T00:20:11.295Z,99.90
2018-09-04T00:22:40.198Z,99.90
2018-09-04T00:25:09.082Z,99.90
2018-09-04T00:27:37.990Z,99.90
2018-09-04T00:30:07.239Z,99.90
2018-09-04T00:32:36.141Z,99.90
2018-09-04T00:35:05.155Z,99.90
2018-09-04T00:37:34.078Z,99.90
2018-09-04T00:40:03.069Z,99.90
2018-09-04T00:42:32.107Z,99.90
2018-09-04T00:45:01.081Z,99.90
2018-09-04T00:47:30.226Z,99.90
2018-09-04T00:49:59.128Z,99.90
2018-09-04T00:52:28.045Z,99.90
2018-09-04T00:54:56.935Z,99.90
2018-09-04T00:57:25.840Z,99.90
2018-09-04T00:59:54.710Z,99.90
2018-09-04T01:02:23.623Z,99.90
2018-09-04T01:04:52.518Z,99.90
2018-09-04T01:07:21.426Z,99.90
2018-09-04T01:09:50.325Z,99.90
2018-09-04T01:12:19.237Z,99.90
2018-09-04T01:14:48.130Z,99.90
2018-09-04T01:17:17.047Z,99.90
2018-09-04T01:19:47.566Z,99.90
2018-09-04T01:22:16.478Z,99.90
2018-09-04T01:24:45.370Z,99.90
2018-09-04T01:27:14.259Z,99.90
2018-09-04T01:29:43.145Z,99.90
2018-09-04T01:32:12.066Z,99.90
2018-09-04T01:34:40.975Z,99.90
2018-09-04T01:37:09.893Z,99.90
2018-09-04T01:39:38.826Z,99.90
2018-09-04T01:42:07.772Z,99.90
2018-09-04T01:44:36.649Z,99.90
2018-09-04T01:47:05.831Z,99.90
2018-09-04T01:49:35.902Z,99.90
2018-09-04T01:52:04.863Z,99.90
2018-09-04T01:54:33.763Z,99.90
2018-09-04T01:57:02.678Z,99.90
2018-09-04T01:59:31.627Z,99.90
2018-09-04T02:02:00.566Z,99.90
2018-09-04T02:04:29.461Z,99.90
2018-09-04T02:06:58.401Z,99.90
2018-09-04T02:09:27.630Z,99.90
2018-09-04T02:11:56.706Z,99.90
2018-09-04T02:14:25.602Z,99.90
2018-09-04T02:16:54.487Z,99.90
2018-09-04T02:19:23.374Z,99.90
2018-09-04T02:21:52.265Z,99.90
2018-09-04T02:24:21.145Z,99.90
2018-09-04T02:26:50.063Z,99.90
2018-09-04T02:29:18.952Z,99.90
2018-09-04T02:31:47.850Z,99.90
2018-09-04T02:34:16.731Z,99.90
2018-09-04T02:36:45.626Z,99.90
2018-09-04T02:39:21.214Z,99.90
2018-09-04T02:41:50.106Z,99.90
2018-09-04T02:44:19.022Z,99.90
2018-09-04T02:46:47.945Z,99.90
2018-09-04T02:49:16.821Z,99.90
2018-09-04T02:51:45.719Z,99.90
2018-09-04T02:54:14.614Z,99.90
2018-09-04T02:56:43.514Z,99.90
2018-09-04T02:59:12.413Z,99.90
2018-09-04T03:01:41.311Z,99.90
2018-09-04T03:04:10.190Z,99.90
2018-09-04T03:06:39.081Z,99.90
2018-09-04T03:09:08.023Z,99.90
2018-09-04T03:11:36.909Z,99.90
2018-09-04T03:14:05.810Z,99.90
2018-09-04T03:16:34.748Z,99.90
2018-09-04T03:19:03.681Z,99.90
2018-09-04T03:21:32.603Z,99.90
2018-09-04T03:24:01.538Z,99.90
2018-09-04T03:26:30.455Z,99.90
2018-09-04T03:28:59.366Z,99.90
2018-09-04T03:31:28.246Z,99.90
2018-09-04T03:33:57.146Z,99.90
2018-09-04T03:36:26.058Z,99.90
2018-09-04T03:38:54.998Z,99.90
2018-09-04T03:41:23.882Z,99.90
2018-09-04T03:43:52.869Z,99.90
2018-09-04T03:46:21.714Z,99.90
2018-09-04T03:48:50.627Z,99.90
2018-09-04T03:51:19.562Z,99.90
2018-09-04T03:53:48.458Z,99.90
2018-09-04T03:56:17.333Z,99.90
2018-09-04T03:58:46.219Z,99.90
2018-09-04T04:01:15.150Z,99.90
2018-09-04T04:03:44.012Z,99.90
2018-09-04T04:06:12.906Z,99.90
2018-09-04T04:08:41.798Z,99.90
2018-09-04T04:11:10.731Z,99.90
2018-09-04T04:13:39.636Z,99.90
2018-09-04T04:16:08.569Z,99.90
2018-09-04T04:18:37.466Z,99.90
2018-09-04T04:21:06.375Z,99.90
2018-09-04T04:23:35.285Z,99.90
2018-09-04T04:26:04.318Z,99.90
2018-09-04T04:28:33.233Z,99.90
2018-09-04T04:31:02.163Z,99.90
2018-09-04T04:33:31.098Z,99.90
2018-09-04T04:36:00.012Z,99.90
2018-09-04T04:38:28.910Z,99.90
2018-09-04T04:40:57.812Z,99.90
2018-09-04T04:43:26.718Z,99.90
2018-09-04T04:45:55.594Z,99.90
2018-09-04T04:48:24.536Z,99.90
2018-09-04T04:50:53.370Z,99.90
2018-09-04T04:53:22.309Z,99.90
2018-09-04T04:55:51.178Z,99.90
2018-09-04T04:58:20.088Z,99.90
2018-09-04T05:00:48.978Z,99.90
2018-09-04T05:03:17.887Z,99.90
2018-09-04T05:05:46.786Z,99.90
2018-09-04T05:08:15.692Z,99.90
2018-09-04T05:10:44.605Z,99.90
2018-09-04T05:13:13.521Z,99.90
2018-09-04T05:15:42.385Z,99.90
2018-09-04T05:18:11.288Z,99.90
2018-09-04T05:20:40.197Z,99.90
2018-09-04T05:23:09.090Z,99.90
2018-09-04T05:25:37.970Z,99.90
2018-09-04T05:28:06.862Z,99.90
2018-09-04T05:30:36.658Z,99.90
2018-09-04T05:33:11.050Z,99.90
2018-09-04T05:35:45.490Z,99.90
2018-09-04T05:38:14.399Z,99.90
2018-09-04T05:40:43.278Z,99.90
2018-09-04T05:43:15.089Z,99.90
2018-09-04T05:45:44.015Z,99.90
2018-09-04T05:48:14.746Z,99.90
2018-09-04T05:50:43.665Z,99.90
2018-09-04T05:53:12.762Z,99.90
2018-09-04T05:55:41.770Z,99.90
2018-09-04T05:58:10.668Z,99.90
2018-09-04T06:00:43.849Z,99.90
2018-09-04T06:03:12.776Z,99.90
2018-09-04T06:05:41.665Z,99.90
2018-09-04T06:08:10.554Z,99.90
2018-09-04T06:10:39.498Z,99.90
2018-09-04T06:13:08.406Z,99.90
2018-09-04T06:15:37.298Z,99.90
2018-09-04T06:18:06.222Z,99.90
2018-09-04T06:20:35.106Z,99.90
2018-09-04T06:23:04.043Z,99.90
2018-09-04T06:25:32.971Z,99.90
2018-09-04T06:28:02.089Z,99.90
2018-09-04T06:30:31.065Z,99.90
2018-09-04T06:32:59.995Z,99.90
2018-09-04T06:35:28.903Z,99.90
2018-09-04T06:37:57.780Z,99.90
2018-09-04T06:40:26.670Z,99.90
2018-09-04T06:42:55.561Z,99.90
2018-09-04T06:45:24.441Z,99.90
2018-09-04T06:47:53.350Z,99.90
2018-09-04T06:50:22.333Z,99.90
2018-09-04T06:52:51.226Z,99.90
2018-09-04T06:55:20.126Z,99.90
2018-09-04T06:57:49.033Z,99.90
2018-09-04T07:00:17.914Z,99.90
2018-09-04T07:02:46.903Z,99.90
2018-09-04T07:05:15.781Z,99.90
2018-09-04T07:07:44.666Z,99.90
2018-09-04T07:10:13.582Z,99.90
2018-09-04T07:12:42.483Z,99.90
2018-09-04T07:15:11.397Z,99.90
2018-09-04T07:17:40.286Z,99.90
2018-09-04T07:20:09.229Z,99.90
2018-09-04T07:22:38.145Z,99.90
2018-09-04T07:25:07.030Z,99.90
2018-09-04T07:27:35.963Z,99.90
2018-09-04T07:30:05.418Z,99.90
2018-09-04T07:32:34.390Z,99.90
2018-09-04T07:35:03.333Z,99.90
2018-09-04T07:37:32.246Z,99.90
2018-09-04T07:40:01.150Z,99.90
2018-09-04T07:42:30.067Z,99.90
2018-09-04T07:44:59.002Z,99.90
2018-09-04T07:47:27.926Z,99.90
2018-09-04T07:49:56.838Z,99.90
2018-09-04T07:52:25.781Z,99.90
2018-09-04T07:54:54.679Z,99.90
2018-09-04T07:57:23.558Z,99.90
2018-09-04T07:59:52.522Z,99.90
2018-09-04T08:02:23.619Z,99.90
2018-09-04T08:04:52.598Z,99.90
2018-09-04T08:07:21.546Z,99.90
2018-09-04T08:09:50.477Z,99.90
2018-09-04T08:12:19.382Z,99.90
2018-09-04T08:14:48.434Z,99.90
2018-09-04T08:17:17.477Z,99.90
2018-09-04T08:19:46.484Z,99.90
2018-09-04T08:22:15.387Z,99.90
2018-09-04T08:24:44.315Z,99.90
2018-09-04T08:27:13.208Z,99.90
2018-09-04T08:29:42.099Z,99.90
2018-09-04T08:32:10.990Z,99.90
2018-09-04T08:34:39.905Z,99.90
2018-09-04T08:37:08.792Z,99.90
2018-09-04T08:39:37.731Z,99.90
2018-09-04T08:42:06.742Z,99.90
2018-09-04T08:44:35.811Z,99.90
2018-09-04T08:47:04.911Z,99.90
2018-09-04T08:49:33.829Z,99.90
2018-09-04T08:52:02.731Z,99.50
2018-09-04T08:54:31.715Z,99.30
2018-09-04T08:57:00.670Z,99.90
2018-09-04T08:59:30.071Z,99.90
2018-09-04T09:01:59.143Z,99.90
2018-09-04T09:04:28.620Z,99.90
2018-09-04T09:06:57.498Z,99.90
2018-09-04T09:09:26.410Z,99.90
2018-09-04T09:11:55.342Z,99.00
2018-09-04T09:14:24.234Z,99.90
2018-09-04T09:16:53.126Z,99.90
2018-09-04T09:19:22.024Z,99.00
2018-09-04T09:21:50.907Z,98.20
2018-09-04T09:24:19.810Z,97.40
2018-09-04T09:26:48.690Z,98.00
2018-09-04T09:29:17.606Z,99.80
2018-09-04T09:31:46.507Z,99.80
2018-09-04T09:34:15.402Z,98.30
2018-09-04T09:36:44.390Z,98.50
2018-09-04T09:39:13.214Z,97.80
2018-09-04T09:41:42.229Z,97.80
2018-09-04T09:44:11.138Z,96.10
2018-09-04T09:46:40.039Z,95.00
2018-09-04T09:49:08.954Z,91.90
2018-09-04T09:51:37.838Z,92.90
2018-09-04T09:54:06.936Z,91.10
2018-09-04T09:56:35.798Z,90.30
2018-09-04T09:59:04.710Z,86.30
2018-09-04T10:01:38.986Z,75.50
2018-09-04T10:04:08.654Z,74.30
2018-09-04T10:06:37.527Z,74.50
2018-09-04T10:09:07.675Z,75.10
2018-09-04T10:11:36.666Z,72.00
2018-09-04T10:14:05.671Z,80.90
2018-09-04T10:16:34.610Z,74.40
2018-09-04T10:19:03.566Z,71.90
2018-09-04T10:21:32.471Z,76.90
2018-09-04T10:24:01.395Z,73.70
2018-09-04T10:26:30.377Z,79.60
2018-09-04T10:28:59.288Z,67.20
2018-09-04T10:31:28.192Z,73.20
2018-09-04T10:33:57.094Z,68.20
2018-09-04T10:36:26.017Z,69.60
2018-09-04T10:39:00.238Z,66.60
2018-09-04T10:41:29.150Z,74.40
2018-09-04T10:43:58.224Z,69.10
2018-09-04T10:46:27.330Z,64.80
2018-09-04T10:48:56.223Z,65.50
2018-09-04T10:51:25.119Z,73.40
2018-09-04T10:53:54.021Z,71.60
2018-09-04T10:56:23.062Z,74.40
2018-09-04T10:58:51.982Z,69.50
2018-09-04T11:01:20.969Z,73.60
2018-09-04T11:03:50.462Z,74.00
2018-09-04T11:06:19.395Z,70.00
2018-09-04T11:08:49.262Z,63.70
2018-09-04T11:11:20.296Z,65.80
2018-09-04T11:13:49.198Z,59.10
2018-09-04T11:16:18.102Z,60.60
2018-09-04T11:18:46.990Z,60.60
2018-09-04T11:21:15.874Z,56.50
2018-09-04T11:23:44.789Z,57.30
2018-09-04T11:26:13.702Z,57.30
2018-09-04T11:28:45.930Z,54.40
2018-09-04T11:31:14.938Z,52.20
2018-09-04T11:33:45.434Z,53.20
2018-09-04T11:36:15.587Z,54.60
2018-09-04T11:38:44.486Z,48.00
2018-09-04T11:41:13.394Z,49.00
2018-09-04T11:43:42.294Z,52.70
2018-09-04T11:46:11.245Z,47.10
2018-09-04T11:48:44.194Z,47.50
2018-09-04T11:51:13.102Z,49.00
2018-09-04T11:53:41.983Z,49.00
2018-09-04T11:56:10.913Z,50.70
2018-09-04T11:58:39.794Z,50.00
2018-09-04T12:01:12.087Z,49.30
2018-09-04T12:03:41.031Z,46.90
2018-09-04T12:06:10.077Z,43.70
2018-09-04T12:08:38.934Z,46.40
2018-09-04T12:11:07.882Z,44.60
2018-09-04T12:13:36.850Z,44.80
2018-09-04T12:16:05.777Z,42.40
2018-09-04T12:18:34.722Z,40.20
2018-09-04T12:21:06.260Z,41.00
2018-09-04T12:23:35.814Z,39.80
2018-09-04T12:26:06.028Z,37.80
2018-09-04T12:28:35.081Z,38.80
2018-09-04T12:31:04.406Z,36.50
2018-09-04T12:33:33.318Z,35.30
2018-09-04T12:36:02.273Z,37.10
2018-09-04T12:38:32.626Z,35.80
2018-09-04T12:41:06.928Z,32.20
2018-09-04T12:43:37.441Z,32.10
2018-09-04T12:46:06.869Z,34.60
2018-09-04T12:48:35.865Z,32.00
2018-09-04T12:51:04.722Z,31.90
2018-09-04T12:53:34.216Z,30.20
2018-09-04T12:56:03.201Z,31.60
2018-09-04T12:58:32.122Z,30.10
2018-09-04T13:01:01.046Z,30.50
2018-09-04T13:03:30.170Z,32.30
2018-09-04T13:05:59.109Z,31.60
2018-09-04T13:08:30.337Z,32.40
2018-09-04T13:10:59.245Z,31.60
2018-09-04T13:13:28.235Z,31.70
2018-09-04T13:15:58.803Z,28.40
2018-09-04T13:18:28.285Z,24.80
2018-09-04T13:21:01.166Z,24.90
2018-09-04T13:23:30.979Z,26.10
2018-09-04T13:25:59.937Z,26.20
2018-09-04T13:28:29.344Z,26.70
2018-09-04T13:30:58.296Z,26.70
2018-09-04T13:33:27.183Z,25.00
2018-09-04T13:35:56.082Z,26.30
2018-09-04T13:38:24.974Z,26.60
2018-09-04T13:40:59.275Z,28.80
2018-09-04T13:43:28.178Z,29.20
2018-09-04T13:45:57.113Z,28.60
2018-09-04T13:48:27.801Z,28.00
2018-09-04T13:50:56.990Z,28.90
2018-09-04T13:53:26.355Z,27.90
2018-09-04T13:55:55.337Z,25.80
2018-09-04T13:58:24.238Z,25.80
2018-09-04T14:00:53.133Z,25.20
2018-09-04T14:03:22.228Z,25.20
2018-09-04T14:05:51.101Z,24.50
2018-09-04T14:08:19.986Z,23.60
2018-09-04T14:10:48.877Z,24.50
2018-09-04T14:13:17.810Z,24.90
2018-09-04T14:15:46.734Z,25.10
2018-09-04T14:18:15.622Z,26.40
2018-09-04T14:20:44.582Z,26.80
2018-09-04T14:23:13.564Z,28.00
2018-09-04T14:25:42.422Z,27.20
2018-09-04T14:28:11.447Z,25.90
2018-09-04T14:30:40.406Z,26.50
2018-09-04T14:33:09.209Z,24.90
2018-09-04T14:35:38.114Z,25.00
2018-09-04T14:38:07.074Z,24.10
2018-09-04T14:40:36.730Z,23.70
2018-09-04T14:43:05.902Z,23.00
2018-09-04T14:45:35.443Z,23.30
2018-09-04T14:48:04.728Z,22.00
2018-09-04T14:50:33.783Z,22.40
2018-09-04T14:53:02.726Z,23.10
2018-09-04T14:55:31.642Z,23.30
2018-09-04T14:58:00.542Z,23.30
2018-09-04T15:00:29.467Z,24.10
2018-09-04T15:02:58.339Z,23.10
2018-09-04T15:05:27.220Z,21.80
2018-09-04T15:07:56.103Z,22.00
2018-09-04T15:10:24.990Z,22.30
2018-09-04T15:12:53.858Z,21.00
2018-09-04T15:15:22.773Z,22.20
2018-09-04T15:17:51.654Z,22.30
2018-09-04T15:20:20.554Z,22.30
2018-09-04T15:22:49.490Z,21.70
2018-09-04T15:25:18.499Z,21.60
2018-09-04T15:27:47.497Z,21.50
2018-09-04T15:30:16.539Z,21.40
2018-09-04T15:32:45.646Z,22.50
2018-09-04T15:35:14.580Z,23.90
2018-09-04T15:37:43.458Z,24.10
2018-09-04T15:40:12.338Z,24.50
2018-09-04T15:42:41.304Z,24.50
2018-09-04T15:45:10.135Z,24.80
2018-09-04T15:47:39.074Z,26.70
2018-09-04T15:50:07.971Z,27.50
2018-09-04T15:52:36.858Z,28.60
2018-09-04T15:55:05.877Z,28.30
2018-09-04T15:57:34.802Z,29.80
2018-09-04T16:00:03.995Z,28.70
2018-09-04T16:02:32.917Z,30.00
2018-09-04T16:05:01.822Z,30.90
2018-09-04T16:07:30.718Z,30.70
2018-09-04T16:09:59.721Z,30.70
2018-09-04T16:12:28.510Z,33.60
2018-09-04T16:14:57.400Z,33.00
2018-09-04T16:17:26.478Z,35.10
2018-09-04T16:19:55.378Z,32.80
2018-09-04T16:22:24.322Z,33.50
2018-09-04T16:24:53.203Z,34.10
2018-09-04T16:27:22.101Z,35.00
2018-09-04T16:29:50.982Z,34.50
2018-09-04T16:32:19.967Z,34.90
2018-09-04T16:34:48.988Z,35.30
2018-09-04T16:37:17.787Z,36.60
2018-09-04T16:39:46.726Z,36.80
2018-09-04T16:42:15.643Z,36.50
2018-09-04T16:44:44.678Z,37.20
2018-09-04T16:47:13.568Z,36.50
2018-09-04T16:49:42.465Z,37.50
2018-09-04T16:52:11.485Z,37.60
2018-09-04T16:54:40.415Z,37.70
2018-09-04T16:57:09.314Z,41.10
2018-09-04T16:59:38.232Z,40.50
2018-09-04T17:02:07.120Z,43.60
2018-09-04T17:04:36.064Z,42.10
2018-09-04T17:07:05.283Z,41.10
2018-09-04T17:09:34.194Z,41.10
2018-09-04T17:12:03.100Z,40.40
2018-09-04T17:14:32.011Z,41.60
2018-09-04T17:17:01.145Z,42.90
2018-09-04T17:19:30.083Z,42.00
2018-09-04T17:21:58.998Z,42.00
2018-09-04T17:24:27.887Z,43.10
2018-09-04T17:26:56.782Z,43.30
2018-09-04T17:29:25.713Z,44.10
2018-09-04T17:31:54.635Z,44.10
2018-09-04T17:34:23.523Z,45.90
2018-09-04T17:36:52.442Z,47.50
2018-09-04T17:39:21.431Z,46.40
2018-09-04T17:41:50.316Z,46.80
2018-09-04T17:44:19.197Z,46.50
2018-09-04T17:46:48.162Z,48.90
2018-09-04T17:49:17.026Z,46.90
2018-09-04T17:51:45.966Z,47.30
2018-09-04T17:54:14.845Z,47.50
2018-09-04T17:56:43.721Z,47.40
2018-09-04T17:59:12.603Z,47.50
2018-09-04T18:01:41.503Z,47.70
2018-09-04T18:04:10.473Z,48.00
2018-09-04T18:06:39.474Z,49.00
2018-09-04T18:09:08.666Z,49.50
2018-09-04T18:11:37.623Z,48.20
2018-09-04T18:14:07.647Z,48.30
2018-09-04T18:16:36.551Z,49.80
2018-09-04T18:19:05.566Z,48.90
2018-09-04T18:21:34.522Z,50.40
2018-09-04T18:24:03.479Z,51.30
2018-09-04T18:26:32.374Z,55.60
2018-09-04T18:29:01.246Z,52.10
2018-09-04T18:31:30.158Z,51.80
2018-09-04T18:33:59.118Z,52.60
2018-09-04T18:36:28.023Z,53.70
2018-09-04T18:38:56.943Z,53.40
2018-09-04T18:41:25.844Z,54.40
2018-09-04T18:43:54.715Z,53.00
2018-09-04T18:46:23.610Z,54.40
2018-09-04T18:48:54.759Z,55.50
2018-09-04T18:51:24.423Z,54.90
2018-09-04T18:53:53.299Z,54.30
2018-09-04T18:56:22.202Z,54.60
2018-09-04T18:58:51.100Z,55.70
2018-09-04T19:01:20.022Z,55.10
2018-09-04T19:03:48.903Z,56.60
2018-09-04T19:06:17.797Z,57.10
2018-09-04T19:08:46.686Z,56.60
2018-09-04T19:11:16.660Z,55.60
2018-09-04T19:13:45.541Z,55.80
2018-09-04T19:16:14.429Z,58.70
2018-09-04T19:18:43.326Z,60.60
2018-09-04T19:21:12.251Z,58.00
2018-09-04T19:23:41.154Z,60.60
2018-09-04T19:26:10.077Z,59.30
2018-09-04T19:28:38.968Z,58.70
2018-09-04T19:31:07.886Z,58.50
2018-09-04T19:33:36.778Z,57.70
2018-09-04T19:36:05.722Z,60.20
2018-09-04T19:38:34.654Z,59.70
2018-09-04T19:41:03.552Z,59.40
2018-09-04T19:43:32.554Z,60.10
2018-09-04T19:46:01.470Z,60.90
2018-09-04T19:48:30.405Z,60.40
2018-09-04T19:50:59.338Z,62.20
2018-09-04T19:53:28.251Z,63.10
2018-09-04T19:55:57.162Z,59.70
2018-09-04T19:58:26.076Z,58.50
2018-09-04T20:00:55.043Z,62.70
2018-09-04T20:03:23.918Z,62.40
2018-09-04T20:05:52.795Z,62.60
2018-09-04T20:08:21.800Z,61.00
2018-09-04T20:10:50.993Z,63.50
2018-09-04T20:13:20.028Z,61.00
2018-09-04T20:15:48.766Z,61.10
2018-09-04T20:18:17.654Z,61.20
2018-09-04T20:20:46.543Z,61.90
2018-09-04T20:23:15.443Z,63.20
2018-09-04T20:25:44.402Z,63.30
2018-09-04T20:28:13.406Z,63.70
2018-09-04T20:30:42.332Z,66.30
2018-09-04T20:33:11.279Z,65.70
2018-09-04T20:35:40.225Z,66.50
2018-09-04T20:38:09.194Z,67.90
2018-09-04T20:40:38.170Z,72.60
2018-09-04T20:43:07.190Z,71.40
2018-09-04T20:45:36.142Z,71.00
2018-09-04T20:48:05.586Z,72.60
2018-09-04T20:50:34.576Z,72.50
2018-09-04T20:53:03.617Z,74.50
2018-09-04T20:55:32.589Z,75.80
2018-09-04T20:58:12.974Z,77.90
2018-09-04T21:00:53.114Z,80.70
2018-09-04T21:03:33.222Z,84.30
2018-09-04T21:06:13.418Z,87.00
2018-09-04T21:08:53.974Z,86.40
2018-09-04T21:11:22.885Z,86.20
2018-09-04T21:13:51.784Z,86.40
2018-09-04T21:16:20.690Z,84.70
2018-09-04T21:18:49.620Z,84.20
2018-09-04T21:21:18.658Z,83.70
2018-09-04T21:23:47.635Z,84.90
2018-09-04T21:26:16.583Z,90.10
2018-09-04T21:28:45.558Z,88.90
2018-09-04T21:31:14.642Z,88.20
2018-09-04T21:33:43.621Z,90.10
2018-09-04T21:36:12.554Z,90.60
2018-09-04T21:38:41.641Z,89.50
2018-09-04T21:41:10.550Z,88.70
2018-09-04T21:43:39.495Z,88.80
2018-09-04T21:46:08.474Z,88.00
2018-09-04T21:48:37.799Z,89.10
2018-09-04T21:51:06.874Z,90.20
2018-09-04T21:53:35.838Z,91.90
2018-09-04T21:56:05.189Z,91.30
2018-09-04T21:58:34.286Z,91.80
2018-09-04T22:01:03.403Z,91.80
2018-09-04T22:03:32.289Z,91.50
2018-09-04T22:06:01.193Z,92.70
2018-09-04T22:08:30.086Z,94.80
2018-09-04T22:10:58.994Z,95.50
2018-09-04T22:13:27.937Z,96.00
2018-09-04T22:15:56.846Z,95.60
2018-09-04T22:18:25.754Z,95.70
2018-09-04T22:20:54.657Z,96.50
2018-09-04T22:23:23.570Z,96.80
2018-09-04T22:25:52.590Z,96.70
2018-09-04T22:28:21.508Z,95.90
2018-09-04T22:30:50.390Z,95.40
2018-09-04T22:33:19.286Z,95.10
2018-09-04T22:35:48.190Z,95.80
2018-09-04T22:38:17.084Z,96.50
2018-09-04T22:40:45.974Z,96.30
2018-09-04T22:43:14.866Z,96.80
2018-09-04T22:45:43.778Z,97.20
2018-09-04T22:48:12.682Z,98.00
2018-09-04T22:50:46.955Z,98.70
2018-09-04T22:53:15.850Z,98.90
2018-09-04T22:55:44.762Z,98.70
2018-09-04T22:58:13.694Z,98.60
2018-09-04T23:00:42.586Z,98.60
2018-09-04T23:03:11.510Z,98.40
2018-09-04T23:05:40.422Z,98.90
2018-09-04T23:08:09.386Z,99.10
2018-09-04T23:10:38.286Z,98.50
2018-09-04T23:13:07.183Z,98.90
2018-09-04T23:15:41.459Z,99.30
2018-09-04T23:18:10.477Z,99.90
2018-09-04T23:20:39.386Z,99.90
2018-09-04T23:23:08.314Z,99.90
2018-09-04T23:25:37.384Z,99.90
2018-09-04T23:28:06.697Z,99.90
2018-09-04T23:30:35.614Z,99.90
2018-09-04T23:33:04.565Z,99.90
2018-09-04T23:35:33.456Z,99.90
2018-09-04T23:38:02.354Z,99.90
2018-09-04T23:40:31.239Z,99.90
2018-09-04T23:43:00.170Z,99.90
2018-09-04T23:45:29.057Z,99.90
2018-09-04T23:47:57.969Z,99.90
2018-09-04T23:50:27.157Z,99.90
2018-09-04T23:52:56.070Z,99.90
2018-09-04T23:55:24.962Z,99.90
2018-09-04T23:57:53.862Z,99.90
